sensor_id;sensor_type;location;lat;lon;timestamp;temperature;humidity
27026;DHT22;14565;48.626;8.978;2024-01-27T00:00:48;1.30;99.90
27026;DHT22;14565;48.626;8.978;2024-01-27T00:03:14;1.40;99.90
27026;DHT22;14565;48.626;8.978;2024-01-27T00:05:39;1.30;99.90
27026;DHT22;14565;48.626;8.978;2024-01-27T00:08:05;1.30;99.90
27026;DHT22;14565;48.626;8.978;2024-01-27T00:10:31;1.40;99.90
27026;DHT22;14565;48.626;8.978;2024-01-27T00:12:56;1.30;99.90
27026;DHT22;14565;48.626;8.978;2024-01-27T00:15:23;1.20;99.90
27026;DHT22;14565;48.626;8.978;2024-01-27T00:17:48;1.20;99.90
27026;DHT22;14565;48.626;8.978;2024-01-27T00:20:14;1.10;99.90
27026;DHT22;14565;48.626;8.978;2024-01-27T00:22:39;0.90;99.90
27026;DHT22;14565;48.626;8.978;2024-01-27T00:25:05;0.80;99.90
27026;DHT22;14565;48.626;8.978;2024-01-27T00:27:31;0.80;99.90
27026;DHT22;14565;48.626;8.978;2024-01-27T00:29:56;0.80;99.90
27026;DHT22;14565;48.626;8.978;2024-01-27T00:32:22;0.70;99.90
27026;DHT22;14565;48.626;8.978;2024-01-27T00:34:47;0.70;99.90
27026;DHT22;14565;48.626;8.978;2024-01-27T00:37:13;0.70;99.90
27026;DHT22;14565;48.626;8.978;2024-01-27T00:39:38;0.60;99.90
27026;DHT22;14565;48.626;8.978;2024-01-27T00:42:04;0.70;99.90
27026;DHT22;14565;48.626;8.978;2024-01-27T00:44:29;0.60;99.90
27026;DHT22;14565;48.626;8.978;2024-01-27T00:46:55;0.60;99.90
27026;DHT22;14565;48.626;8.978;2024-01-27T00:49:20;0.60;99.90
27026;DHT22;14565;48.626;8.978;2024-01-27T00:51:46;0.60;99.90
27026;DHT22;14565;48.626;8.978;2024-01-27T00:54:11;0.60;99.90
27026;DHT22;14565;48.626;8.978;2024-01-27T00:56:37;0.60;99.90
27026;DHT22;14565;48.626;8.978;2024-01-27T00:59:02;0.60;99.90
27026;DHT22;14565;48.626;8.978;2024-01-27T01:01:28;0.60;99.90
27026;DHT22;14565;48.626;8.978;2024-01-27T01:03:54;0.60;99.90
27026;DHT22;14565;48.626;8.978;2024-01-27T01:06:19;0.60;99.90
27026;DHT22;14565;48.626;8.978;2024-01-27T01:08:45;0.60;99.90
27026;DHT22;14565;48.626;8.978;2024-01-27T01:11:10;0.70;99.90
27026;DHT22;14565;48.626;8.978;2024-01-27T01:13:36;0.70;99.90
27026;DHT22;14565;48.626;8.978;2024-01-27T01:16:01;0.70;99.90
27026;DHT22;14565;48.626;8.978;2024-01-27T01:18:28;0.60;99.90
27026;DHT22;14565;48.626;8.978;2024-01-27T01:20:54;0.50;99.90
27026;DHT22;14565;48.626;8.978;2024-01-27T01:23:19;0.50;99.90
27026;DHT22;14565;48.626;8.978;2024-01-27T01:25:45;0.50;99.90
27026;DHT22;14565;48.626;8.978;2024-01-27T01:28:10;0.40;99.90
27026;DHT22;14565;48.626;8.978;2024-01-27T01:30:36;0.40;99.90
27026;DHT22;14565;48.626;8.978;2024-01-27T01:33:01;0.50;99.90
27026;DHT22;14565;48.626;8.978;2024-01-27T01:35:27;0.50;99.90
27026;DHT22;14565;48.626;8.978;2024-01-27T01:37:53;0.60;99.90
27026;DHT22;14565;48.626;8.978;2024-01-27T01:40:18;0.60;99.90
27026;DHT22;14565;48.626;8.978;2024-01-27T01:42:49;0.50;99.90
27026;DHT22;14565;48.626;8.978;2024-01-27T01:45:15;0.40;99.90
27026;DHT22;14565;48.626;8.978;2024-01-27T01:47:40;0.50;99.90
27026;DHT22;14565;48.626;8.978;2024-01-27T01:50:06;0.50;99.90
27026;DHT22;14565;48.626;8.978;2024-01-27T01:52:32;0.60;99.90
27026;DHT22;14565;48.626;8.978;2024-01-27T01:54:57;0.50;99.90
27026;DHT22;14565;48.626;8.978;2024-01-27T01:57:23;0.40;99.90
27026;DHT22;14565;48.626;8.978;2024-01-27T01:59:48;0.30;99.90
27026;DHT22;14565;48.626;8.978;2024-01-27T02:02:14;0.10;99.90
27026;DHT22;14565;48.626;8.978;2024-01-27T02:04:43;0.30;99.90
27026;DHT22;14565;48.626;8.978;2024-01-27T02:07:09;0.10;99.90
27026;DHT22;14565;48.626;8.978;2024-01-27T02:09:35;0.10;99.90
27026;DHT22;14565;48.626;8.978;2024-01-27T02:12:01;0.20;99.90
27026;DHT22;14565;48.626;8.978;2024-01-27T02:14:26;0.10;99.90
27026;DHT22;14565;48.626;8.978;2024-01-27T02:16:55;-0.10;99.90
27026;DHT22;14565;48.626;8.978;2024-01-27T02:19:21;-0.10;99.90
27026;DHT22;14565;48.626;8.978;2024-01-27T02:21:46;-0.10;99.90
27026;DHT22;14565;48.626;8.978;2024-01-27T02:24:12;0.00;99.90
27026;DHT22;14565;48.626;8.978;2024-01-27T02:26:37;0.00;99.90
27026;DHT22;14565;48.626;8.978;2024-01-27T02:29:03;0.00;99.90
27026;DHT22;14565;48.626;8.978;2024-01-27T02:31:28;-0.10;99.90
27026;DHT22;14565;48.626;8.978;2024-01-27T02:33:54;-0.20;99.90
27026;DHT22;14565;48.626;8.978;2024-01-27T02:36:19;-0.20;99.90
27026;DHT22;14565;48.626;8.978;2024-01-27T02:38:45;-0.10;99.90
27026;DHT22;14565;48.626;8.978;2024-01-27T02:41:10;0.00;99.90
27026;DHT22;14565;48.626;8.978;2024-01-27T02:43:37;0.00;99.90
27026;DHT22;14565;48.626;8.978;2024-01-27T02:46:03;-0.20;99.90
27026;DHT22;14565;48.626;8.978;2024-01-27T02:48:29;-0.30;99.90
27026;DHT22;14565;48.626;8.978;2024-01-27T02:50:54;-0.40;99.90
27026;DHT22;14565;48.626;8.978;2024-01-27T02:53:20;-0.30;99.90
27026;DHT22;14565;48.626;8.978;2024-01-27T02:55:45;-0.40;99.90
27026;DHT22;14565;48.626;8.978;2024-01-27T02:58:11;-0.50;99.90
27026;DHT22;14565;48.626;8.978;2024-01-27T03:00:37;-0.50;99.90
27026;DHT22;14565;48.626;8.978;2024-01-27T03:03:02;-0.50;99.90
27026;DHT22;14565;48.626;8.978;2024-01-27T03:05:28;-0.50;99.90
27026;DHT22;14565;48.626;8.978;2024-01-27T03:07:53;-0.50;99.90
27026;DHT22;14565;48.626;8.978;2024-01-27T03:10:19;-0.50;99.90
27026;DHT22;14565;48.626;8.978;2024-01-27T03:12:44;-0.60;99.90
27026;DHT22;14565;48.626;8.978;2024-01-27T03:15:10;-0.60;99.90
27026;DHT22;14565;48.626;8.978;2024-01-27T03:17:35;-0.50;99.90
27026;DHT22;14565;48.626;8.978;2024-01-27T03:20:01;-0.50;99.90
27026;DHT22;14565;48.626;8.978;2024-01-27T03:22:26;-0.50;99.90
27026;DHT22;14565;48.626;8.978;2024-01-27T03:24:52;-0.60;99.90
27026;DHT22;14565;48.626;8.978;2024-01-27T03:27:20;-0.70;99.90
27026;DHT22;14565;48.626;8.978;2024-01-27T03:29:45;-0.80;99.90
27026;DHT22;14565;48.626;8.978;2024-01-27T03:32:11;-0.80;99.90
27026;DHT22;14565;48.626;8.978;2024-01-27T03:34:37;-0.80;99.90
27026;DHT22;14565;48.626;8.978;2024-01-27T03:37:06;-0.80;99.90
27026;DHT22;14565;48.626;8.978;2024-01-27T03:39:32;-0.80;99.90
27026;DHT22;14565;48.626;8.978;2024-01-27T03:41:57;-0.80;99.90
27026;DHT22;14565;48.626;8.978;2024-01-27T03:44:23;-0.90;99.90
27026;DHT22;14565;48.626;8.978;2024-01-27T03:46:48;-0.90;99.90
27026;DHT22;14565;48.626;8.978;2024-01-27T03:49:14;-0.90;99.90
27026;DHT22;14565;48.626;8.978;2024-01-27T03:51:39;-0.90;99.90
27026;DHT22;14565;48.626;8.978;2024-01-27T03:54:05;-0.90;99.90
27026;DHT22;14565;48.626;8.978;2024-01-27T03:56:30;-1.00;99.90
27026;DHT22;14565;48.626;8.978;2024-01-27T03:58:56;-0.90;99.90
27026;DHT22;14565;48.626;8.978;2024-01-27T04:01:22;-0.80;99.90
27026;DHT22;14565;48.626;8.978;2024-01-27T04:03:47;-0.80;99.90
27026;DHT22;14565;48.626;8.978;2024-01-27T04:06:13;-1.00;99.90
27026;DHT22;14565;48.626;8.978;2024-01-27T04:08:38;-1.10;99.90
27026;DHT22;14565;48.626;8.978;2024-01-27T04:11:05;-1.00;99.90
27026;DHT22;14565;48.626;8.978;2024-01-27T04:13:33;-1.00;99.90
27026;DHT22;14565;48.626;8.978;2024-01-27T04:16:00;-1.10;99.90
27026;DHT22;14565;48.626;8.978;2024-01-27T04:18:26;-1.10;99.90
27026;DHT22;14565;48.626;8.978;2024-01-27T04:20:52;-1.20;99.90
27026;DHT22;14565;48.626;8.978;2024-01-27T04:23:17;-1.20;99.90
27026;DHT22;14565;48.626;8.978;2024-01-27T04:25:43;-1.10;99.90
27026;DHT22;14565;48.626;8.978;2024-01-27T04:28:09;-1.10;99.90
27026;DHT22;14565;48.626;8.978;2024-01-27T04:30:37;-1.10;99.90
27026;DHT22;14565;48.626;8.978;2024-01-27T04:33:02;-1.20;99.90
27026;DHT22;14565;48.626;8.978;2024-01-27T04:35:29;-1.20;99.90
27026;DHT22;14565;48.626;8.978;2024-01-27T04:37:54;-1.20;99.90
27026;DHT22;14565;48.626;8.978;2024-01-27T04:40:20;-1.20;99.90
27026;DHT22;14565;48.626;8.978;2024-01-27T04:42:45;-1.20;99.90
27026;DHT22;14565;48.626;8.978;2024-01-27T04:45:14;-1.20;99.90
27026;DHT22;14565;48.626;8.978;2024-01-27T04:47:40;-1.20;99.90
27026;DHT22;14565;48.626;8.978;2024-01-27T04:50:05;-1.20;99.90
27026;DHT22;14565;48.626;8.978;2024-01-27T04:52:31;-1.20;99.90
27026;DHT22;14565;48.626;8.978;2024-01-27T04:54:56;-1.20;99.90
27026;DHT22;14565;48.626;8.978;2024-01-27T04:57:22;-1.20;99.90
27026;DHT22;14565;48.626;8.978;2024-01-27T04:59:48;-1.30;99.90
27026;DHT22;14565;48.626;8.978;2024-01-27T05:02:13;-1.30;99.90
27026;DHT22;14565;48.626;8.978;2024-01-27T05:04:39;-1.30;99.90
27026;DHT22;14565;48.626;8.978;2024-01-27T05:07:04;-1.20;99.90
27026;DHT22;14565;48.626;8.978;2024-01-27T05:09:30;-1.20;99.90
27026;DHT22;14565;48.626;8.978;2024-01-27T05:11:56;-1.30;99.90
27026;DHT22;14565;48.626;8.978;2024-01-27T05:14:21;-1.30;99.90
27026;DHT22;14565;48.626;8.978;2024-01-27T05:16:47;-1.30;99.90
27026;DHT22;14565;48.626;8.978;2024-01-27T05:19:12;-1.30;99.90
27026;DHT22;14565;48.626;8.978;2024-01-27T05:21:38;-1.30;99.90
27026;DHT22;14565;48.626;8.978;2024-01-27T05:24:03;-1.30;99.90
27026;DHT22;14565;48.626;8.978;2024-01-27T05:26:29;-1.30;99.90
27026;DHT22;14565;48.626;8.978;2024-01-27T05:28:55;-1.30;99.90
27026;DHT22;14565;48.626;8.978;2024-01-27T05:31:20;-1.40;99.90
27026;DHT22;14565;48.626;8.978;2024-01-27T05:33:46;-1.40;99.90
27026;DHT22;14565;48.626;8.978;2024-01-27T05:36:11;-1.40;99.90
27026;DHT22;14565;48.626;8.978;2024-01-27T05:38:36;-1.50;99.90
27026;DHT22;14565;48.626;8.978;2024-01-27T05:41:02;-1.40;99.90
27026;DHT22;14565;48.626;8.978;2024-01-27T05:43:28;-1.50;99.90
27026;DHT22;14565;48.626;8.978;2024-01-27T05:45:54;-1.40;99.90
27026;DHT22;14565;48.626;8.978;2024-01-27T05:48:20;-1.30;99.90
27026;DHT22;14565;48.626;8.978;2024-01-27T05:50:58;-1.40;99.90
27026;DHT22;14565;48.626;8.978;2024-01-27T05:53:24;-1.40;99.90
27026;DHT22;14565;48.626;8.978;2024-01-27T05:55:50;-1.50;99.90
27026;DHT22;14565;48.626;8.978;2024-01-27T05:58:15;-1.50;99.90
27026;DHT22;14565;48.626;8.978;2024-01-27T06:00:44;-1.60;99.90
27026;DHT22;14565;48.626;8.978;2024-01-27T06:03:13;-1.60;99.90
27026;DHT22;14565;48.626;8.978;2024-01-27T06:05:39;-1.60;99.90
27026;DHT22;14565;48.626;8.978;2024-01-27T06:08:05;-1.60;99.90
27026;DHT22;14565;48.626;8.978;2024-01-27T06:10:31;-1.60;99.90
27026;DHT22;14565;48.626;8.978;2024-01-27T06:12:57;-1.70;99.90
27026;DHT22;14565;48.626;8.978;2024-01-27T06:15:22;-1.70;99.90
27026;DHT22;14565;48.626;8.978;2024-01-27T06:17:48;-1.60;99.90
27026;DHT22;14565;48.626;8.978;2024-01-27T06:20:13;-1.70;99.90
27026;DHT22;14565;48.626;8.978;2024-01-27T06:22:41;-1.70;99.90
27026;DHT22;14565;48.626;8.978;2024-01-27T06:25:07;-1.70;99.90
27026;DHT22;14565;48.626;8.978;2024-01-27T06:27:33;-1.70;99.90
27026;DHT22;14565;48.626;8.978;2024-01-27T06:29:58;-1.70;99.90
27026;DHT22;14565;48.626;8.978;2024-01-27T06:32:24;-1.70;99.90
27026;DHT22;14565;48.626;8.978;2024-01-27T06:34:49;-1.60;99.90
27026;DHT22;14565;48.626;8.978;2024-01-27T06:37:15;-1.80;99.90
27026;DHT22;14565;48.626;8.978;2024-01-27T06:39:40;-1.70;99.90
27026;DHT22;14565;48.626;8.978;2024-01-27T06:42:06;-1.70;99.90
27026;DHT22;14565;48.626;8.978;2024-01-27T06:44:31;-1.80;99.90
27026;DHT22;14565;48.626;8.978;2024-01-27T06:46:57;-1.70;99.90
27026;DHT22;14565;48.626;8.978;2024-01-27T06:49:22;-1.90;99.90
27026;DHT22;14565;48.626;8.978;2024-01-27T06:51:48;-1.90;99.90
27026;DHT22;14565;48.626;8.978;2024-01-27T06:54:13;-2.00;99.90
27026;DHT22;14565;48.626;8.978;2024-01-27T06:56:39;-1.90;99.90
27026;DHT22;14565;48.626;8.978;2024-01-27T06:59:04;-2.00;99.90
27026;DHT22;14565;48.626;8.978;2024-01-27T07:01:30;-2.00;99.90
27026;DHT22;14565;48.626;8.978;2024-01-27T07:03:55;-2.00;99.90
27026;DHT22;14565;48.626;8.978;2024-01-27T07:06:21;-1.90;99.90
27026;DHT22;14565;48.626;8.978;2024-01-27T07:08:46;-1.90;99.90
27026;DHT22;14565;48.626;8.978;2024-01-27T07:11:12;-1.90;99.90
27026;DHT22;14565;48.626;8.978;2024-01-27T07:13:37;-2.00;99.90
27026;DHT22;14565;48.626;8.978;2024-01-27T07:16:04;-1.90;99.90
27026;DHT22;14565;48.626;8.978;2024-01-27T07:18:29;-1.80;99.90
27026;DHT22;14565;48.626;8.978;2024-01-27T07:20:55;-1.80;99.90
27026;DHT22;14565;48.626;8.978;2024-01-27T07:23:20;-1.90;99.90
27026;DHT22;14565;48.626;8.978;2024-01-27T07:25:46;-1.70;99.90
27026;DHT22;14565;48.626;8.978;2024-01-27T07:28:12;-1.70;99.90
27026;DHT22;14565;48.626;8.978;2024-01-27T07:30:37;-1.60;99.90
27026;DHT22;14565;48.626;8.978;2024-01-27T07:33:03;-1.70;99.90
27026;DHT22;14565;48.626;8.978;2024-01-27T07:35:29;-1.70;99.90
27026;DHT22;14565;48.626;8.978;2024-01-27T07:37:57;-1.80;99.90
27026;DHT22;14565;48.626;8.978;2024-01-27T07:40:22;-1.80;99.90
27026;DHT22;14565;48.626;8.978;2024-01-27T07:42:48;-1.80;99.90
27026;DHT22;14565;48.626;8.978;2024-01-27T07:45:13;-1.80;99.90
27026;DHT22;14565;48.626;8.978;2024-01-27T07:47:39;-1.80;99.90
27026;DHT22;14565;48.626;8.978;2024-01-27T07:50:04;-1.70;99.90
27026;DHT22;14565;48.626;8.978;2024-01-27T07:52:30;-1.70;99.90
27026;DHT22;14565;48.626;8.978;2024-01-27T07:54:55;-1.70;99.90
27026;DHT22;14565;48.626;8.978;2024-01-27T07:57:21;-1.60;99.90
27026;DHT22;14565;48.626;8.978;2024-01-27T07:59:47;-1.50;99.90
27026;DHT22;14565;48.626;8.978;2024-01-27T08:02:12;-1.50;99.90
27026;DHT22;14565;48.626;8.978;2024-01-27T08:04:38;-1.40;99.90
27026;DHT22;14565;48.626;8.978;2024-01-27T08:07:03;-1.30;99.90
27026;DHT22;14565;48.626;8.978;2024-01-27T08:09:35;-1.30;99.90
27026;DHT22;14565;48.626;8.978;2024-01-27T08:12:00;-1.20;99.90
27026;DHT22;14565;48.626;8.978;2024-01-27T08:14:27;-1.20;99.90
27026;DHT22;14565;48.626;8.978;2024-01-27T08:16:53;-1.10;99.90
27026;DHT22;14565;48.626;8.978;2024-01-27T08:19:19;-1.10;99.90
27026;DHT22;14565;48.626;8.978;2024-01-27T08:21:46;-0.90;99.90
27026;DHT22;14565;48.626;8.978;2024-01-27T08:24:12;-0.80;99.90
27026;DHT22;14565;48.626;8.978;2024-01-27T08:26:38;-0.70;99.90
27026;DHT22;14565;48.626;8.978;2024-01-27T08:29:03;-0.60;99.90
27026;DHT22;14565;48.626;8.978;2024-01-27T08:31:29;-0.40;99.90
27026;DHT22;14565;48.626;8.978;2024-01-27T08:33:54;-0.30;99.90
27026;DHT22;14565;48.626;8.978;2024-01-27T08:36:20;-0.20;99.90
27026;DHT22;14565;48.626;8.978;2024-01-27T08:38:46;-0.10;99.90
27026;DHT22;14565;48.626;8.978;2024-01-27T08:41:12;0.00;99.90
27026;DHT22;14565;48.626;8.978;2024-01-27T08:43:37;0.00;99.90
27026;DHT22;14565;48.626;8.978;2024-01-27T08:46:03;0.30;99.90
27026;DHT22;14565;48.626;8.978;2024-01-27T08:48:28;0.40;99.90
27026;DHT22;14565;48.626;8.978;2024-01-27T08:50:54;0.60;99.90
27026;DHT22;14565;48.626;8.978;2024-01-27T08:53:19;0.70;99.90
27026;DHT22;14565;48.626;8.978;2024-01-27T08:55:45;0.80;99.90
27026;DHT22;14565;48.626;8.978;2024-01-27T08:58:10;0.80;99.90
27026;DHT22;14565;48.626;8.978;2024-01-27T09:00:36;0.90;99.90
27026;DHT22;14565;48.626;8.978;2024-01-27T09:03:01;1.10;99.90
27026;DHT22;14565;48.626;8.978;2024-01-27T09:05:28;1.20;99.90
27026;DHT22;14565;48.626;8.978;2024-01-27T09:07:54;1.20;99.90
27026;DHT22;14565;48.626;8.978;2024-01-27T09:10:19;1.30;99.90
27026;DHT22;14565;48.626;8.978;2024-01-27T09:12:45;1.40;99.90
27026;DHT22;14565;48.626;8.978;2024-01-27T09:15:11;1.40;99.90
27026;DHT22;14565;48.626;8.978;2024-01-27T09:17:36;1.50;99.90
27026;DHT22;14565;48.626;8.978;2024-01-27T09:20:02;1.40;99.90
27026;DHT22;14565;48.626;8.978;2024-01-27T09:22:28;1.40;99.90
27026;DHT22;14565;48.626;8.978;2024-01-27T09:24:53;1.50;99.90
27026;DHT22;14565;48.626;8.978;2024-01-27T09:27:20;1.70;99.90
27026;DHT22;14565;48.626;8.978;2024-01-27T09:29:45;2.10;99.90
27026;DHT22;14565;48.626;8.978;2024-01-27T09:32:11;2.10;99.90
27026;DHT22;14565;48.626;8.978;2024-01-27T09:34:36;2.10;99.90
27026;DHT22;14565;48.626;8.978;2024-01-27T09:37:02;2.10;99.90
27026;DHT22;14565;48.626;8.978;2024-01-27T09:39:28;2.20;99.90
27026;DHT22;14565;48.626;8.978;2024-01-27T09:41:53;2.20;99.90
27026;DHT22;14565;48.626;8.978;2024-01-27T09:44:19;2.40;99.90
27026;DHT22;14565;48.626;8.978;2024-01-27T09:46:45;2.70;99.90
27026;DHT22;14565;48.626;8.978;2024-01-27T09:49:11;2.70;99.90
27026;DHT22;14565;48.626;8.978;2024-01-27T09:51:38;2.90;99.90
27026;DHT22;14565;48.626;8.978;2024-01-27T09:54:04;2.90;99.90
27026;DHT22;14565;48.626;8.978;2024-01-27T09:56:30;3.30;99.90
27026;DHT22;14565;48.626;8.978;2024-01-27T09:58:56;3.60;99.90
27026;DHT22;14565;48.626;8.978;2024-01-27T10:01:22;3.60;99.90
27026;DHT22;14565;48.626;8.978;2024-01-27T10:03:49;3.60;99.90
27026;DHT22;14565;48.626;8.978;2024-01-27T10:06:15;3.70;99.90
27026;DHT22;14565;48.626;8.978;2024-01-27T10:08:40;3.60;99.90
27026;DHT22;14565;48.626;8.978;2024-01-27T10:11:07;3.80;99.90
27026;DHT22;14565;48.626;8.978;2024-01-27T10:13:33;3.80;99.90
27026;DHT22;14565;48.626;8.978;2024-01-27T10:16:07;3.70;99.90
27026;DHT22;14565;48.626;8.978;2024-01-27T10:18:33;4.00;99.90
27026;DHT22;14565;48.626;8.978;2024-01-27T10:20:59;4.10;99.90
27026;DHT22;14565;48.626;8.978;2024-01-27T10:23:25;4.30;99.90
27026;DHT22;14565;48.626;8.978;2024-01-27T10:25:52;4.10;99.90
27026;DHT22;14565;48.626;8.978;2024-01-27T10:28:18;4.10;99.90
27026;DHT22;14565;48.626;8.978;2024-01-27T10:30:44;4.20;99.90
27026;DHT22;14565;48.626;8.978;2024-01-27T10:33:10;4.60;99.90
27026;DHT22;14565;48.626;8.978;2024-01-27T10:35:36;4.70;99.90
27026;DHT22;14565;48.626;8.978;2024-01-27T10:38:02;4.90;99.90
27026;DHT22;14565;48.626;8.978;2024-01-27T10:40:27;5.30;99.90
27026;DHT22;14565;48.626;8.978;2024-01-27T10:43:06;5.70;99.90
27026;DHT22;14565;48.626;8.978;2024-01-27T10:45:35;6.30;99.90
27026;DHT22;14565;48.626;8.978;2024-01-27T10:48:02;6.30;99.90
27026;DHT22;14565;48.626;8.978;2024-01-27T10:50:28;5.80;99.90
27026;DHT22;14565;48.626;8.978;2024-01-27T10:52:54;5.90;99.90
27026;DHT22;14565;48.626;8.978;2024-01-27T10:55:22;6.30;99.90
27026;DHT22;14565;48.626;8.978;2024-01-27T10:57:48;6.20;99.90
27026;DHT22;14565;48.626;8.978;2024-01-27T11:00:14;6.40;99.90
27026;DHT22;14565;48.626;8.978;2024-01-27T11:02:40;5.60;99.90
27026;DHT22;14565;48.626;8.978;2024-01-27T11:05:07;5.30;99.90
27026;DHT22;14565;48.626;8.978;2024-01-27T11:07:35;5.10;99.90
27026;DHT22;14565;48.626;8.978;2024-01-27T11:10:02;5.30;99.90
27026;DHT22;14565;48.626;8.978;2024-01-27T11:12:28;5.60;99.90
27026;DHT22;14565;48.626;8.978;2024-01-27T11:14:53;5.20;99.90
27026;DHT22;14565;48.626;8.978;2024-01-27T11:17:19;5.00;99.90
27026;DHT22;14565;48.626;8.978;2024-01-27T11:19:45;5.20;99.90
27026;DHT22;14565;48.626;8.978;2024-01-27T11:22:23;5.50;99.90
27026;DHT22;14565;48.626;8.978;2024-01-27T11:24:49;5.30;99.90
27026;DHT22;14565;48.626;8.978;2024-01-27T11:27:15;5.50;99.90
27026;DHT22;14565;48.626;8.978;2024-01-27T11:29:46;5.20;99.90
27026;DHT22;14565;48.626;8.978;2024-01-27T11:32:12;5.40;99.90
27026;DHT22;14565;48.626;8.978;2024-01-27T11:34:43;5.20;99.90
27026;DHT22;14565;48.626;8.978;2024-01-27T11:37:15;5.30;99.90
27026;DHT22;14565;48.626;8.978;2024-01-27T11:40:03;5.30;99.90
27026;DHT22;14565;48.626;8.978;2024-01-27T11:42:29;5.10;99.90
27026;DHT22;14565;48.626;8.978;2024-01-27T11:44:54;5.10;99.90
27026;DHT22;14565;48.626;8.978;2024-01-27T11:47:20;5.00;99.90
27026;DHT22;14565;48.626;8.978;2024-01-27T11:49:52;5.00;99.90
27026;DHT22;14565;48.626;8.978;2024-01-27T11:52:18;5.00;99.90
27026;DHT22;14565;48.626;8.978;2024-01-27T11:54:44;4.80;99.90
27026;DHT22;14565;48.626;8.978;2024-01-27T11:57:09;5.00;99.90
27026;DHT22;14565;48.626;8.978;2024-01-27T11:59:35;5.10;99.90
27026;DHT22;14565;48.626;8.978;2024-01-27T12:02:01;5.10;99.90
27026;DHT22;14565;48.626;8.978;2024-01-27T12:04:27;5.10;99.90
27026;DHT22;14565;48.626;8.978;2024-01-27T12:06:52;5.00;99.90
27026;DHT22;14565;48.626;8.978;2024-01-27T12:09:18;5.20;99.90
27026;DHT22;14565;48.626;8.978;2024-01-27T12:11:44;5.00;99.90
27026;DHT22;14565;48.626;8.978;2024-01-27T12:14:11;5.00;99.90
27026;DHT22;14565;48.626;8.978;2024-01-27T12:16:37;5.00;99.90
27026;DHT22;14565;48.626;8.978;2024-01-27T12:19:02;5.10;99.90
27026;DHT22;14565;48.626;8.978;2024-01-27T12:21:28;5.20;99.90
27026;DHT22;14565;48.626;8.978;2024-01-27T12:23:54;5.30;99.90
27026;DHT22;14565;48.626;8.978;2024-01-27T12:26:21;5.20;99.90
27026;DHT22;14565;48.626;8.978;2024-01-27T12:28:47;5.20;99.90
27026;DHT22;14565;48.626;8.978;2024-01-27T12:31:16;5.40;99.90
27026;DHT22;14565;48.626;8.978;2024-01-27T12:33:53;5.30;99.90
27026;DHT22;14565;48.626;8.978;2024-01-27T12:36:19;5.40;99.90
27026;DHT22;14565;48.626;8.978;2024-01-27T12:41:20;5.50;99.90
27026;DHT22;14565;48.626;8.978;2024-01-27T12:43:46;5.60;99.90
27026;DHT22;14565;48.626;8.978;2024-01-27T12:46:11;5.80;99.90
27026;DHT22;14565;48.626;8.978;2024-01-27T12:48:37;5.90;99.90
27026;DHT22;14565;48.626;8.978;2024-01-27T12:51:04;6.00;99.90
27026;DHT22;14565;48.626;8.978;2024-01-27T12:53:29;5.90;99.90
27026;DHT22;14565;48.626;8.978;2024-01-27T12:55:55;6.00;99.90
27026;DHT22;14565;48.626;8.978;2024-01-27T12:58:21;5.90;99.90
27026;DHT22;14565;48.626;8.978;2024-01-27T13:00:47;5.90;99.90
27026;DHT22;14565;48.626;8.978;2024-01-27T13:03:12;6.00;99.90
27026;DHT22;14565;48.626;8.978;2024-01-27T13:05:38;6.10;99.90
27026;DHT22;14565;48.626;8.978;2024-01-27T13:08:04;5.90;99.90
27026;DHT22;14565;48.626;8.978;2024-01-27T13:10:29;6.10;99.90
27026;DHT22;14565;48.626;8.978;2024-01-27T13:12:55;6.00;99.90
27026;DHT22;14565;48.626;8.978;2024-01-27T13:15:21;6.10;99.90
27026;DHT22;14565;48.626;8.978;2024-01-27T13:17:49;5.90;99.90
27026;DHT22;14565;48.626;8.978;2024-01-27T13:20:14;5.80;99.90
27026;DHT22;14565;48.626;8.978;2024-01-27T13:22:40;6.10;99.90
27026;DHT22;14565;48.626;8.978;2024-01-27T13:25:05;6.20;99.90
27026;DHT22;14565;48.626;8.978;2024-01-27T13:27:31;6.20;99.90
27026;DHT22;14565;48.626;8.978;2024-01-27T13:29:56;6.20;99.90
27026;DHT22;14565;48.626;8.978;2024-01-27T13:32:22;6.30;99.90
27026;DHT22;14565;48.626;8.978;2024-01-27T13:34:47;6.40;99.90
27026;DHT22;14565;48.626;8.978;2024-01-27T13:37:13;6.40;99.90
27026;DHT22;14565;48.626;8.978;2024-01-27T13:39:41;6.40;99.90
27026;DHT22;14565;48.626;8.978;2024-01-27T13:42:07;6.40;99.90
27026;DHT22;14565;48.626;8.978;2024-01-27T13:44:32;6.50;99.90
27026;DHT22;14565;48.626;8.978;2024-01-27T13:47:02;6.40;99.90
27026;DHT22;14565;48.626;8.978;2024-01-27T13:49:27;6.40;99.90
27026;DHT22;14565;48.626;8.978;2024-01-27T13:51:53;6.40;99.90
27026;DHT22;14565;48.626;8.978;2024-01-27T13:54:18;6.40;99.90
27026;DHT22;14565;48.626;8.978;2024-01-27T13:56:44;6.40;99.90
27026;DHT22;14565;48.626;8.978;2024-01-27T13:59:10;6.40;99.90
27026;DHT22;14565;48.626;8.978;2024-01-27T14:01:36;6.30;99.90
27026;DHT22;14565;48.626;8.978;2024-01-27T14:04:01;6.40;99.90
27026;DHT22;14565;48.626;8.978;2024-01-27T14:06:27;6.20;99.90
27026;DHT22;14565;48.626;8.978;2024-01-27T14:08:52;6.30;99.90
27026;DHT22;14565;48.626;8.978;2024-01-27T14:11:18;6.30;99.90
27026;DHT22;14565;48.626;8.978;2024-01-27T14:13:44;6.40;99.90
27026;DHT22;14565;48.626;8.978;2024-01-27T14:16:10;6.40;99.90
27026;DHT22;14565;48.626;8.978;2024-01-27T14:18:35;6.40;99.90
27026;DHT22;14565;48.626;8.978;2024-01-27T14:21:01;6.40;99.90
27026;DHT22;14565;48.626;8.978;2024-01-27T14:23:26;6.50;99.90
27026;DHT22;14565;48.626;8.978;2024-01-27T14:25:54;6.50;99.90
27026;DHT22;14565;48.626;8.978;2024-01-27T14:28:20;6.40;99.90
27026;DHT22;14565;48.626;8.978;2024-01-27T14:30:46;6.40;99.90
27026;DHT22;14565;48.626;8.978;2024-01-27T14:33:12;6.40;99.90
27026;DHT22;14565;48.626;8.978;2024-01-27T14:35:37;6.30;99.90
27026;DHT22;14565;48.626;8.978;2024-01-27T14:38:04;6.30;99.90
27026;DHT22;14565;48.626;8.978;2024-01-27T14:40:33;6.30;99.90
27026;DHT22;14565;48.626;8.978;2024-01-27T14:42:59;6.30;99.90
27026;DHT22;14565;48.626;8.978;2024-01-27T14:45:24;6.20;99.90
27026;DHT22;14565;48.626;8.978;2024-01-27T14:47:50;6.10;99.90
27026;DHT22;14565;48.626;8.978;2024-01-27T14:50:16;6.00;99.90
27026;DHT22;14565;48.626;8.978;2024-01-27T14:52:41;5.90;99.90
27026;DHT22;14565;48.626;8.978;2024-01-27T14:55:07;5.90;99.90
27026;DHT22;14565;48.626;8.978;2024-01-27T14:57:34;5.90;99.90
27026;DHT22;14565;48.626;8.978;2024-01-27T14:59:59;5.90;99.90
27026;DHT22;14565;48.626;8.978;2024-01-27T15:02:25;6.00;99.90
27026;DHT22;14565;48.626;8.978;2024-01-27T15:04:51;6.00;99.90
27026;DHT22;14565;48.626;8.978;2024-01-27T15:07:16;5.90;99.90
27026;DHT22;14565;48.626;8.978;2024-01-27T15:09:43;6.00;99.90
27026;DHT22;14565;48.626;8.978;2024-01-27T15:12:08;5.90;99.90
27026;DHT22;14565;48.626;8.978;2024-01-27T15:14:34;5.90;99.90
27026;DHT22;14565;48.626;8.978;2024-01-27T15:16:59;5.80;99.90
27026;DHT22;14565;48.626;8.978;2024-01-27T15:19:25;5.80;99.90
27026;DHT22;14565;48.626;8.978;2024-01-27T15:21:50;5.80;99.90
27026;DHT22;14565;48.626;8.978;2024-01-27T15:24:16;5.80;99.90
27026;DHT22;14565;48.626;8.978;2024-01-27T15:26:42;5.60;99.90
27026;DHT22;14565;48.626;8.978;2024-01-27T15:29:07;5.70;99.90
27026;DHT22;14565;48.626;8.978;2024-01-27T15:31:33;5.60;99.90
27026;DHT22;14565;48.626;8.978;2024-01-27T15:33:59;5.50;99.90